Meadville, Missouri
Current Conditions -  °F | °C
As of 4:55 AM on Sunday 23 Nov 2014 (Local Time) from KIRK Reporting Station
Overcast Overcast  
Wind Chill: 51°   Ceiling: 1200
Heat Index: 51°   Visibility: 7mi
Dew Point: 50°   Wind: 9mph
Humidity: 96%   Direction: 150°SSE
Pressure: 29.63"   Gusts: NA
Location:  39.78°N, 93.3°W
Report Text: KIRK 231055Z AUTO 15008KT 7SM BKN012 BKN041 OVC090 11/10 A2963 RMK AO2 RAB26E42 SLP036 P0000 T01060100
Loading
Personal Weather Stations






























Interactive Weather Map New forecast layout! Learn more

10-Day Weather Forecast

Advertisements
Track Severe Weather on mobile